sensor_id;sensor_type;location;lat;lon;timestamp;pressure;altitude;pressure_sealevel;temperature;humidity
64602;BME280;68371;42.630;23.192;2023-06-19T00:00:27;92516.28;;;17.11;96.73
64602;BME280;68371;42.630;23.192;2023-06-19T00:02:55;92526.91;;;17.07;96.65
64602;BME280;68371;42.630;23.192;2023-06-19T00:05:22;92523.78;;;16.94;96.71
64602;BME280;68371;42.630;23.192;2023-06-19T00:07:50;92520.38;;;16.94;95.88
64602;BME280;68371;42.630;23.192;2023-06-19T00:10:17;92523.03;;;16.94;96.73
64602;BME280;68371;42.630;23.192;2023-06-19T00:12:46;92462.94;;;16.57;96.37
64602;BME280;68371;42.630;23.192;2023-06-19T00:15:12;92516.22;;;16.96;96.23
64602;BME280;68371;42.630;23.192;2023-06-19T00:17:39;92521.88;;;16.88;96.35
64602;BME280;68371;42.630;23.192;2023-06-19T00:20:07;92501.28;;;16.74;95.87
64602;BME280;68371;42.630;23.192;2023-06-19T00:22:34;92507.75;;;16.80;95.75
64602;BME280;68371;42.630;23.192;2023-06-19T00:25:01;92508.59;;;16.88;96.35
64602;BME280;68371;42.630;23.192;2023-06-19T00:27:28;92508.97;;;16.90;96.54
64602;BME280;68371;42.630;23.192;2023-06-19T00:29:56;92506.69;;;16.88;96.98
64602;BME280;68371;42.630;23.192;2023-06-19T00:32:28;92506.66;;;16.85;96.83
64602;BME280;68371;42.630;23.192;2023-06-19T00:34:55;92502.88;;;16.82;95.86
64602;BME280;68371;42.630;23.192;2023-06-19T00:37:21;92506.69;;;16.81;97.56
64602;BME280;68371;42.630;23.192;2023-06-19T00:39:48;92511.97;;;16.81;97.57
64602;BME280;68371;42.630;23.192;2023-06-19T00:42:15;92514.63;;;16.81;96.92
64602;BME280;68371;42.630;23.192;2023-06-19T00:44:41;92498.66;;;16.77;97.02
64602;BME280;68371;42.630;23.192;2023-06-19T00:47:10;92504.81;;;16.85;97.14
64602;BME280;68371;42.630;23.192;2023-06-19T00:49:37;92506.69;;;16.81;97.00
64602;BME280;68371;42.630;23.192;2023-06-19T00:52:04;92504.72;;;16.78;96.08
64602;BME280;68371;42.630;23.192;2023-06-19T00:54:31;92492.94;;;16.72;96.72
64602;BME280;68371;42.630;23.192;2023-06-19T00:56:59;92497.09;;;16.69;97.42
64602;BME280;68371;42.630;23.192;2023-06-19T00:59:26;92483.47;;;16.71;97.83
64602;BME280;68371;42.630;23.192;2023-06-19T01:01:54;92492.22;;;16.75;98.17
64602;BME280;68371;42.630;23.192;2023-06-19T01:04:22;92486.16;;;16.78;97.07
64602;BME280;68371;42.630;23.192;2023-06-19T01:06:53;92488.81;;;16.78;97.37
64602;BME280;68371;42.630;23.192;2023-06-19T01:09:26;92481.59;;;16.75;97.66
64602;BME280;68371;42.630;23.192;2023-06-19T01:12:01;92483.88;;;16.73;97.44
64602;BME280;68371;42.630;23.192;2023-06-19T01:14:35;92483.84;;;16.69;98.07
64602;BME280;68371;42.630;23.192;2023-06-19T01:17:03;92472.44;;;16.65;97.17
64602;BME280;68371;42.630;23.192;2023-06-19T01:19:31;92472.44;;;16.65;95.78
64602;BME280;68371;42.630;23.192;2023-06-19T01:22:02;92474.72;;;16.63;95.76
64602;BME280;68371;42.630;23.192;2023-06-19T01:24:29;92473.19;;;16.62;95.92
64602;BME280;68371;42.630;23.192;2023-06-19T01:26:56;92472.75;;;16.56;95.85
64602;BME280;68371;42.630;23.192;2023-06-19T01:29:23;92471.63;;;16.54;96.59
64602;BME280;68371;42.630;23.192;2023-06-19T01:31:54;92468.94;;;16.47;96.91
64602;BME280;68371;42.630;23.192;2023-06-19T01:34:27;92479.50;;;16.43;96.84
64602;BME280;68371;42.630;23.192;2023-06-19T01:36:57;92473.81;;;16.41;96.35
64602;BME280;68371;42.630;23.192;2023-06-19T01:39:25;92476.44;;;16.37;96.03
64602;BME280;68371;42.630;23.192;2023-06-19T01:41:54;92485.91;;;16.35;95.97
64602;BME280;68371;42.630;23.192;2023-06-19T01:44:22;92488.56;;;16.35;95.21
64602;BME280;68371;42.630;23.192;2023-06-19T01:46:49;92489.56;;;16.19;95.40
64602;BME280;68371;42.630;23.192;2023-06-19T01:49:16;92486.47;;;16.10;96.75
64602;BME280;68371;42.630;23.192;2023-06-19T01:51:43;92461.03;;;15.98;96.64
64602;BME280;68371;42.630;23.192;2023-06-19T01:54:09;92486.81;;;16.05;96.84
64602;BME280;68371;42.630;23.192;2023-06-19T01:56:38;92486.03;;;16.01;96.72
64602;BME280;68371;42.630;23.192;2023-06-19T01:59:05;92487.84;;;15.90;97.19
64602;BME280;68371;42.630;23.192;2023-06-19T02:01:32;92494.28;;;15.92;96.46
64602;BME280;68371;42.630;23.192;2023-06-19T02:03:59;92493.53;;;15.92;96.80
64602;BME280;68371;42.630;23.192;2023-06-19T02:06:25;92487.75;;;15.82;97.11
64602;BME280;68371;42.630;23.192;2023-06-19T02:08:52;92490.84;;;15.88;96.92
64602;BME280;68371;42.630;23.192;2023-06-19T02:11:19;92499.91;;;15.87;96.86
64602;BME280;68371;42.630;23.192;2023-06-19T02:13:47;92496.47;;;15.83;96.27
64602;BME280;68371;42.630;23.192;2023-06-19T02:16:13;92501.72;;;15.76;96.66
64602;BME280;68371;42.630;23.192;2023-06-19T02:18:41;92508.59;;;15.84;96.50
64602;BME280;68371;42.630;23.192;2023-06-19T02:21:07;92501.34;;;15.77;96.60
64602;BME280;68371;42.630;23.192;2023-06-19T02:23:34;92497.16;;;15.76;97.39
64602;BME280;68371;42.630;23.192;2023-06-19T02:26:00;92510.41;;;15.76;97.44
64602;BME280;68371;42.630;23.192;2023-06-19T02:28:27;92502.06;;;15.74;97.15
64602;BME280;68371;42.630;23.192;2023-06-19T02:30:55;92511.13;;;15.73;97.42
64602;BME280;68371;42.630;23.192;2023-06-19T02:33:22;92508.03;;;15.68;97.93
64602;BME280;68371;42.630;23.192;2023-06-19T02:35:51;92508.78;;;15.68;97.73
64602;BME280;68371;42.630;23.192;2023-06-19T02:38:24;92513.69;;;15.66;97.39
64602;BME280;68371;42.630;23.192;2023-06-19T02:40:51;92512.53;;;15.63;96.92
64602;BME280;68371;42.630;23.192;2023-06-19T02:43:17;92515.94;;;15.64;96.17
64602;BME280;68371;42.630;23.192;2023-06-19T02:45:44;92510.19;;;15.58;96.19
64602;BME280;68371;42.630;23.192;2023-06-19T02:48:12;92513.22;;;15.57;96.11
64602;BME280;68371;42.630;23.192;2023-06-19T02:50:39;92519.63;;;15.56;96.16
64602;BME280;68371;42.630;23.192;2023-06-19T02:53:05;92516.50;;;15.47;96.06
64602;BME280;68371;42.630;23.192;2023-06-19T02:55:32;92519.13;;;15.43;95.85
64602;BME280;68371;42.630;23.192;2023-06-19T02:58:00;92517.16;;;15.36;96.03
64602;BME280;68371;42.630;23.192;2023-06-19T03:00:27;92527.34;;;15.34;96.14
64602;BME280;68371;42.630;23.192;2023-06-19T03:02:54;92528.44;;;15.30;95.87
64602;BME280;68371;42.630;23.192;2023-06-19T03:05:22;92527.22;;;15.23;95.59
64602;BME280;68371;42.630;23.192;2023-06-19T03:07:48;92523.03;;;15.19;95.81
64602;BME280;68371;42.630;23.192;2023-06-19T03:10:15;92516.53;;;15.16;96.15
64602;BME280;68371;42.630;23.192;2023-06-19T03:12:42;92521.03;;;15.12;95.90
64602;BME280;68371;42.630;23.192;2023-06-19T03:15:09;92521.38;;;15.07;95.66
64602;BME280;68371;42.630;23.192;2023-06-19T03:17:36;92520.56;;;15.03;96.24
64602;BME280;68371;42.630;23.192;2023-06-19T03:20:03;92510.66;;;14.96;96.50
64602;BME280;68371;42.630;23.192;2023-06-19T03:22:32;92514.81;;;14.97;96.05
64602;BME280;68371;42.630;23.192;2023-06-19T03:24:59;92522.69;;;14.90;96.13
64602;BME280;68371;42.630;23.192;2023-06-19T03:27:25;92519.25;;;14.90;96.30
64602;BME280;68371;42.630;23.192;2023-06-19T03:29:52;92524.88;;;14.85;96.56
64602;BME280;68371;42.630;23.192;2023-06-19T03:32:19;92523.69;;;14.82;96.05
64602;BME280;68371;42.630;23.192;2023-06-19T03:34:46;92517.34;;;14.87;96.83
64602;BME280;68371;42.630;23.192;2023-06-19T03:37:13;92524.88;;;14.85;97.07
64602;BME280;68371;42.630;23.192;2023-06-19T03:39:42;92518.75;;;14.80;96.93
64602;BME280;68371;42.630;23.192;2023-06-19T03:42:09;92528.94;;;14.78;96.95
64602;BME280;68371;42.630;23.192;2023-06-19T03:44:35;92517.97;;;14.76;97.28
64602;BME280;68371;42.630;23.192;2023-06-19T03:47:02;92524.69;;;14.74;97.64
64602;BME280;68371;42.630;23.192;2023-06-19T03:49:29;92522.44;;;14.72;97.57
64602;BME280;68371;42.630;23.192;2023-06-19T03:51:56;92520.91;;;14.71;97.84
64602;BME280;68371;42.630;23.192;2023-06-19T03:54:23;92521.66;;;14.72;97.90
64602;BME280;68371;42.630;23.192;2023-06-19T03:56:51;92522.03;;;14.70;98.04
64602;BME280;68371;42.630;23.192;2023-06-19T03:59:18;92511.69;;;14.61;99.36
64602;BME280;68371;42.630;23.192;2023-06-19T04:01:45;92509.03;;;14.58;99.60
64602;BME280;68371;42.630;23.192;2023-06-19T04:04:11;92518.19;;;14.68;99.96
64602;BME280;68371;42.630;23.192;2023-06-19T04:06:38;92514.81;;;14.67;100.00
64602;BME280;68371;42.630;23.192;2023-06-19T04:09:05;92523.53;;;14.71;100.00
64602;BME280;68371;42.630;23.192;2023-06-19T04:11:31;92522.38;;;14.69;100.00
64602;BME280;68371;42.630;23.192;2023-06-19T04:13:59;92523.53;;;14.71;100.00
64602;BME280;68371;42.630;23.192;2023-06-19T04:16:26;92522.78;;;14.71;100.00
64602;BME280;68371;42.630;23.192;2023-06-19T04:18:53;92519.28;;;14.63;100.00
64602;BME280;68371;42.630;23.192;2023-06-19T04:21:19;92518.66;;;14.73;100.00
64602;BME280;68371;42.630;23.192;2023-06-19T04:23:46;92513.44;;;14.77;100.00
64602;BME280;68371;42.630;23.192;2023-06-19T04:26:13;92512.69;;;14.80;100.00
64602;BME280;68371;42.630;23.192;2023-06-19T04:28:40;92521.84;;;14.86;100.00
64602;BME280;68371;42.630;23.192;2023-06-19T04:31:08;92520.44;;;14.92;100.00
64602;BME280;68371;42.630;23.192;2023-06-19T04:33:36;92514.41;;;14.95;100.00
64602;BME280;68371;42.630;23.192;2023-06-19T04:36:03;92502.72;;;14.96;100.00
64602;BME280;68371;42.630;23.192;2023-06-19T04:38:30;92510.72;;;15.03;100.00
64602;BME280;68371;42.630;23.192;2023-06-19T04:40:56;92505.09;;;15.05;100.00
64602;BME280;68371;42.630;23.192;2023-06-19T04:43:23;92506.28;;;15.11;100.00
64602;BME280;68371;42.630;23.192;2023-06-19T04:45:51;92509.00;;;15.15;100.00
64602;BME280;68371;42.630;23.192;2023-06-19T04:48:19;92504.91;;;15.21;100.00
64602;BME280;68371;42.630;23.192;2023-06-19T04:50:50;92503.06;;;15.25;100.00
64602;BME280;68371;42.630;23.192;2023-06-19T04:53:16;92507.25;;;15.30;100.00
64602;BME280;68371;42.630;23.192;2023-06-19T04:55:43;92508.47;;;15.36;100.00
64602;BME280;68371;42.630;23.192;2023-06-19T04:58:10;92501.72;;;15.42;100.00
64602;BME280;68371;42.630;23.192;2023-06-19T05:00:37;92502.91;;;15.48;100.00
64602;BME280;68371;42.630;23.192;2023-06-19T05:03:03;92507.91;;;15.53;100.00
64602;BME280;68371;42.630;23.192;2023-06-19T05:05:31;92494.63;;;15.50;100.00
64602;BME280;68371;42.630;23.192;2023-06-19T05:08:01;92496.25;;;15.61;100.00
64602;BME280;68371;42.630;23.192;2023-06-19T05:10:28;92493.63;;;15.65;100.00
64602;BME280;68371;42.630;23.192;2023-06-19T05:12:54;92496.41;;;15.76;100.00
64602;BME280;68371;42.630;23.192;2023-06-19T05:15:21;92486.09;;;15.71;100.00
64602;BME280;68371;42.630;23.192;2023-06-19T05:17:47;92501.09;;;15.93;99.91
64602;BME280;68371;42.630;23.192;2023-06-19T05:20:14;92510.59;;;15.98;94.59
64602;BME280;68371;42.630;23.192;2023-06-19T05:22:43;92506.47;;;16.00;96.76
64602;BME280;68371;42.630;23.192;2023-06-19T05:25:10;92512.97;;;16.10;94.81
64602;BME280;68371;42.630;23.192;2023-06-19T05:27:37;92505.63;;;15.93;95.58
64602;BME280;68371;42.630;23.192;2023-06-19T05:30:05;92524.69;;;16.09;96.76
64602;BME280;68371;42.630;23.192;2023-06-19T05:32:31;92527.72;;;16.08;95.48
64602;BME280;68371;42.630;23.192;2023-06-19T05:34:58;92533.16;;;16.26;97.56
64602;BME280;68371;42.630;23.192;2023-06-19T05:37:25;92525.94;;;16.22;97.78
64602;BME280;68371;42.630;23.192;2023-06-19T05:39:56;92534.00;;;16.37;98.56
64602;BME280;68371;42.630;23.192;2023-06-19T05:42:23;92537.78;;;16.36;95.99
64602;BME280;68371;42.630;23.192;2023-06-19T05:44:50;92524.56;;;16.39;98.16
64602;BME280;68371;42.630;23.192;2023-06-19T05:47:16;92532.25;;;16.55;97.29
64602;BME280;68371;42.630;23.192;2023-06-19T05:49:46;92526.97;;;16.62;94.75
64602;BME280;68371;42.630;23.192;2023-06-19T05:52:14;92542.25;;;16.80;96.04
64602;BME280;68371;42.630;23.192;2023-06-19T05:54:41;92535.78;;;16.74;91.58
64602;BME280;68371;42.630;23.192;2023-06-19T05:57:09;92538.16;;;16.90;91.64
64602;BME280;68371;42.630;23.192;2023-06-19T05:59:36;92543.44;;;16.86;89.54
64602;BME280;68371;42.630;23.192;2023-06-19T06:02:04;92548.41;;;16.91;90.76
64602;BME280;68371;42.630;23.192;2023-06-19T06:04:31;92548.84;;;17.04;91.43
64602;BME280;68371;42.630;23.192;2023-06-19T06:06:58;92549.28;;;17.17;91.97
64602;BME280;68371;42.630;23.192;2023-06-19T06:09:24;92545.16;;;17.27;91.21
64602;BME280;68371;42.630;23.192;2023-06-19T06:11:52;92539.53;;;17.39;84.81
64602;BME280;68371;42.630;23.192;2023-06-19T06:14:20;92542.22;;;17.46;88.36
64602;BME280;68371;42.630;23.192;2023-06-19T06:16:47;92508.78;;;17.31;88.67
64602;BME280;68371;42.630;23.192;2023-06-19T06:19:13;92540.38;;;17.65;86.32
64602;BME280;68371;42.630;23.192;2023-06-19T06:21:40;92548.75;;;17.70;83.47
64602;BME280;68371;42.630;23.192;2023-06-19T06:24:07;92547.63;;;17.75;84.92
64602;BME280;68371;42.630;23.192;2023-06-19T06:26:34;92547.28;;;17.87;87.76
64602;BME280;68371;42.630;23.192;2023-06-19T06:29:02;92545.41;;;17.91;79.19
64602;BME280;68371;42.630;23.192;2023-06-19T06:31:30;92546.16;;;17.92;78.12
64602;BME280;68371;42.630;23.192;2023-06-19T06:33:56;92545.03;;;17.96;80.21
64602;BME280;68371;42.630;23.192;2023-06-19T06:36:24;92536.28;;;17.96;80.85
64602;BME280;68371;42.630;23.192;2023-06-19T06:38:51;92547.69;;;18.14;85.16
64602;BME280;68371;42.630;23.192;2023-06-19T06:41:18;92553.03;;;18.32;84.30
64602;BME280;68371;42.630;23.192;2023-06-19T06:43:44;92553.81;;;18.29;78.00
64602;BME280;68371;42.630;23.192;2023-06-19T06:46:11;92556.47;;;18.44;77.19
64602;BME280;68371;42.630;23.192;2023-06-19T06:48:39;92554.94;;;18.46;75.05
64602;BME280;68371;42.630;23.192;2023-06-19T06:51:06;92548.47;;;18.51;78.22
64602;BME280;68371;42.630;23.192;2023-06-19T06:53:35;92552.69;;;18.55;78.79
64602;BME280;68371;42.630;23.192;2023-06-19T06:56:02;92553.41;;;18.70;73.55
64602;BME280;68371;42.630;23.192;2023-06-19T06:58:29;92557.97;;;18.62;76.14
64602;BME280;68371;42.630;23.192;2023-06-19T07:00:56;92556.81;;;18.71;75.48
64602;BME280;68371;42.630;23.192;2023-06-19T07:03:23;92548.84;;;18.67;76.98
64602;BME280;68371;42.630;23.192;2023-06-19T07:05:51;92542.78;;;18.74;77.79
64602;BME280;68371;42.630;23.192;2023-06-19T07:08:17;92551.50;;;18.78;74.45
64602;BME280;68371;42.630;23.192;2023-06-19T07:10:44;92546.94;;;18.71;73.26
64602;BME280;68371;42.630;23.192;2023-06-19T07:13:11;92545.41;;;18.77;74.71
64602;BME280;68371;42.630;23.192;2023-06-19T07:15:38;92550.72;;;18.95;81.80
64602;BME280;68371;42.630;23.192;2023-06-19T07:18:05;92547.31;;;19.02;73.60
64602;BME280;68371;42.630;23.192;2023-06-19T07:20:32;92552.94;;;19.22;80.17
64602;BME280;68371;42.630;23.192;2023-06-19T07:23:00;92548.00;;;19.24;74.52
64602;BME280;68371;42.630;23.192;2023-06-19T07:25:27;92554.41;;;19.41;77.65
64602;BME280;68371;42.630;23.192;2023-06-19T07:27:54;92554.00;;;19.53;71.35
64602;BME280;68371;42.630;23.192;2023-06-19T07:30:20;92555.16;;;19.45;70.55
64602;BME280;68371;42.630;23.192;2023-06-19T07:32:47;92563.16;;;19.45;74.57
64602;BME280;68371;42.630;23.192;2023-06-19T07:35:14;92563.53;;;19.51;74.49
64602;BME280;68371;42.630;23.192;2023-06-19T07:37:41;92565.38;;;19.61;74.03
64602;BME280;68371;42.630;23.192;2023-06-19T07:40:10;92561.94;;;19.64;72.03
64602;BME280;68371;42.630;23.192;2023-06-19T07:42:37;92559.59;;;19.80;72.63
64602;BME280;68371;42.630;23.192;2023-06-19T07:45:05;92563.72;;;19.92;71.98
64602;BME280;68371;42.630;23.192;2023-06-19T07:47:31;92566.38;;;19.92;67.62
64602;BME280;68371;42.630;23.192;2023-06-19T07:49:58;92564.81;;;20.06;70.57
64602;BME280;68371;42.630;23.192;2023-06-19T07:52:25;92571.25;;;20.12;70.19
64602;BME280;68371;42.630;23.192;2023-06-19T07:54:53;92568.63;;;20.01;61.03
64602;BME280;68371;42.630;23.192;2023-06-19T07:57:22;92567.88;;;19.97;59.71
64602;BME280;68371;42.630;23.192;2023-06-19T07:59:49;92573.19;;;20.04;56.83
64602;BME280;68371;42.630;23.192;2023-06-19T08:02:17;92568.94;;;20.14;59.46
64602;BME280;68371;42.630;23.192;2023-06-19T08:04:44;92562.03;;;20.20;57.06
64602;BME280;68371;42.630;23.192;2023-06-19T08:07:11;92571.88;;;20.34;58.85
64602;BME280;68371;42.630;23.192;2023-06-19T08:09:37;92572.97;;;20.40;65.38
64602;BME280;68371;42.630;23.192;2023-06-19T08:12:07;92572.34;;;20.18;60.25
64602;BME280;68371;42.630;23.192;2023-06-19T08:14:35;92573.03;;;20.29;60.33
64602;BME280;68371;42.630;23.192;2023-06-19T08:17:04;92569.88;;;20.41;63.18
64602;BME280;68371;42.630;23.192;2023-06-19T08:19:30;92570.94;;;20.58;63.57
64602;BME280;68371;42.630;23.192;2023-06-19T08:21:57;92561.38;;;20.65;60.89
64602;BME280;68371;42.630;23.192;2023-06-19T08:24:23;92560.91;;;20.73;58.13
64602;BME280;68371;42.630;23.192;2023-06-19T08:26:50;92568.13;;;20.76;54.37
64602;BME280;68371;42.630;23.192;2023-06-19T08:29:17;92567.78;;;20.74;57.62
64602;BME280;68371;42.630;23.192;2023-06-19T08:31:45;92571.91;;;20.83;61.31
64602;BME280;68371;42.630;23.192;2023-06-19T08:34:12;92564.63;;;20.83;53.03
64602;BME280;68371;42.630;23.192;2023-06-19T08:36:39;92570.81;;;20.73;56.09
64602;BME280;68371;42.630;23.192;2023-06-19T08:39:06;92571.22;;;20.71;57.31
64602;BME280;68371;42.630;23.192;2023-06-19T08:41:34;92573.59;;;20.62;57.38
64602;BME280;68371;42.630;23.192;2023-06-19T08:44:00;92576.91;;;20.77;57.02
64602;BME280;68371;42.630;23.192;2023-06-19T08:46:28;92566.94;;;20.81;49.15
64602;BME280;68371;42.630;23.192;2023-06-19T08:48:56;92566.81;;;20.95;52.93
64602;BME280;68371;42.630;23.192;2023-06-19T08:51:23;92573.56;;;21.07;55.59
64602;BME280;68371;42.630;23.192;2023-06-19T08:53:55;92573.44;;;21.18;57.09
64602;BME280;68371;42.630;23.192;2023-06-19T08:56:22;92568.09;;;21.21;56.25
64602;BME280;68371;42.630;23.192;2023-06-19T08:58:49;92584.31;;;21.38;63.93
64602;BME280;68371;42.630;23.192;2023-06-19T09:01:19;92571.31;;;21.40;55.54
64602;BME280;68371;42.630;23.192;2023-06-19T09:03:46;92584.66;;;21.47;56.11
64602;BME280;68371;42.630;23.192;2023-06-19T09:06:18;92580.13;;;21.37;55.94
64602;BME280;68371;42.630;23.192;2023-06-19T09:08:45;92582.50;;;21.31;56.18
64602;BME280;68371;42.630;23.192;2023-06-19T09:11:12;92576.38;;;21.31;53.06
64602;BME280;68371;42.630;23.192;2023-06-19T09:13:39;92575.59;;;21.34;52.30
64602;BME280;68371;42.630;23.192;2023-06-19T09:16:07;92576.38;;;21.31;55.84
64602;BME280;68371;42.630;23.192;2023-06-19T09:18:43;92562.91;;;21.41;59.59
64602;BME280;68371;42.630;23.192;2023-06-19T09:21:15;92569.22;;;21.58;53.41
64602;BME280;68371;42.630;23.192;2023-06-19T09:23:44;92581.63;;;21.76;50.83
64602;BME280;68371;42.630;23.192;2023-06-19T09:26:14;92578.25;;;21.72;52.82
64602;BME280;68371;42.630;23.192;2023-06-19T09:28:41;92578.16;;;21.79;50.35
64602;BME280;68371;42.630;23.192;2023-06-19T09:31:08;92564.38;;;21.80;47.06
64602;BME280;68371;42.630;23.192;2023-06-19T09:33:36;92575.72;;;21.92;48.98
64602;BME280;68371;42.630;23.192;2023-06-19T09:36:04;92572.22;;;21.95;44.72
64602;BME280;68371;42.630;23.192;2023-06-19T09:38:32;92579.72;;;22.04;50.11
64602;BME280;68371;42.630;23.192;2023-06-19T09:41:02;92502.19;;;21.76;55.87
64602;BME280;68371;42.630;23.192;2023-06-19T09:43:33;92578.41;;;22.19;49.66
64602;BME280;68371;42.630;23.192;2023-06-19T09:46:03;92577.78;;;22.08;52.29
64602;BME280;68371;42.630;23.192;2023-06-19T09:48:31;92580.41;;;22.11;52.12
64602;BME280;68371;42.630;23.192;2023-06-19T09:51:05;92576.88;;;22.18;49.25
64602;BME280;68371;42.630;23.192;2023-06-19T09:53:33;92577.00;;;22.38;54.20
64602;BME280;68371;42.630;23.192;2023-06-19T09:56:02;92570.44;;;22.43;46.79
64602;BME280;68371;42.630;23.192;2023-06-19T09:58:29;92569.06;;;22.58;48.75
64602;BME280;68371;42.630;23.192;2023-06-19T10:00:57;92566.69;;;22.87;46.29
64602;BME280;68371;42.630;23.192;2023-06-19T10:03:30;92550.88;;;22.93;48.86
64602;BME280;68371;42.630;23.192;2023-06-19T10:05:58;92552.06;;;22.92;44.66
64602;BME280;68371;42.630;23.192;2023-06-19T10:08:27;92551.00;;;23.09;46.49
64602;BME280;68371;42.630;23.192;2023-06-19T10:10:55;92550.16;;;23.16;46.57
64602;BME280;68371;42.630;23.192;2023-06-19T10:13:31;92551.78;;;23.10;44.96
64602;BME280;68371;42.630;23.192;2023-06-19T10:15:59;92548.22;;;23.16;46.26
64602;BME280;68371;42.630;23.192;2023-06-19T10:18:26;92551.97;;;23.19;46.20
64602;BME280;68371;42.630;23.192;2023-06-19T10:20:54;92540.38;;;23.06;47.00
64602;BME280;68371;42.630;23.192;2023-06-19T10:23:22;92541.31;;;23.15;48.38
64602;BME280;68371;42.630;23.192;2023-06-19T10:25:56;92542.59;;;23.31;50.70
64602;BME280;68371;42.630;23.192;2023-06-19T10:28:25;92545.06;;;23.42;50.34
64602;BME280;68371;42.630;23.192;2023-06-19T10:30:53;92550.28;;;23.49;44.85
64602;BME280;68371;42.630;23.192;2023-06-19T10:33:20;92545.97;;;23.55;48.03
64602;BME280;68371;42.630;23.192;2023-06-19T10:35:47;92557.59;;;23.68;48.92
64602;BME280;68371;42.630;23.192;2023-06-19T10:38:17;92550.13;;;23.56;43.11
64602;BME280;68371;42.630;23.192;2023-06-19T10:40:44;92542.44;;;23.58;40.72
64602;BME280;68371;42.630;23.192;2023-06-19T10:43:12;92539.78;;;23.78;44.79
64602;BME280;68371;42.630;23.192;2023-06-19T10:45:40;92544.06;;;23.72;41.92
64602;BME280;68371;42.630;23.192;2023-06-19T10:48:07;92542.03;;;23.79;44.38
64602;BME280;68371;42.630;23.192;2023-06-19T10:50:34;92535.91;;;23.99;46.36
64602;BME280;68371;42.630;23.192;2023-06-19T10:53:04;92537.41;;;24.16;47.63
64602;BME280;68371;42.630;23.192;2023-06-19T10:55:31;92542.06;;;24.32;47.43
64602;BME280;68371;42.630;23.192;2023-06-19T10:57:57;92538.69;;;24.45;44.09
64602;BME280;68371;42.630;23.192;2023-06-19T11:00:25;92534.75;;;24.49;43.88
64602;BME280;68371;42.630;23.192;2023-06-19T11:02:54;92525.41;;;24.57;45.10
64602;BME280;68371;42.630;23.192;2023-06-19T11:05:23;92538.72;;;24.61;43.70
64602;BME280;68371;42.630;23.192;2023-06-19T11:07:54;92532.09;;;24.82;46.00
64602;BME280;68371;42.630;23.192;2023-06-19T11:10:23;92536.13;;;24.90;45.74
64602;BME280;68371;42.630;23.192;2023-06-19T11:12:53;92532.75;;;24.86;43.01
64602;BME280;68371;42.630;23.192;2023-06-19T11:15:28;92517.06;;;24.85;46.08
64602;BME280;68371;42.630;23.192;2023-06-19T11:17:56;92530.81;;;24.87;44.86
64602;BME280;68371;42.630;23.192;2023-06-19T11:20:23;92532.28;;;25.21;42.35
64602;BME280;68371;42.630;23.192;2023-06-19T11:22:55;92524.59;;;25.35;43.40
64602;BME280;68371;42.630;23.192;2023-06-19T11:25:23;92529.16;;;25.38;40.63
64602;BME280;68371;42.630;23.192;2023-06-19T11:27:50;92530.13;;;25.45;42.34
64602;BME280;68371;42.630;23.192;2023-06-19T11:30:18;92526.38;;;25.55;43.68
64602;BME280;68371;42.630;23.192;2023-06-19T11:32:46;92523.38;;;25.53;40.69
64602;BME280;68371;42.630;23.192;2023-06-19T11:35:16;92530.50;;;25.72;42.86
64602;BME280;68371;42.630;23.192;2023-06-19T11:37:43;92519.91;;;25.94;42.37
64602;BME280;68371;42.630;23.192;2023-06-19T11:40:10;92526.47;;;26.19;43.46
64602;BME280;68371;42.630;23.192;2023-06-19T11:42:47;92533.16;;;26.02;43.46
64602;BME280;68371;42.630;23.192;2023-06-19T11:45:14;92526.59;;;25.90;43.09
64602;BME280;68371;42.630;23.192;2023-06-19T11:47:43;92530.13;;;26.25;45.58
64602;BME280;68371;42.630;23.192;2023-06-19T11:50:10;92528.22;;;26.13;42.34
64602;BME280;68371;42.630;23.192;2023-06-19T11:52:39;92528.94;;;26.13;42.09
64602;BME280;68371;42.630;23.192;2023-06-19T11:55:06;92527.78;;;26.27;44.00
64602;BME280;68371;42.630;23.192;2023-06-19T11:57:33;92519.28;;;26.29;38.94
64602;BME280;68371;42.630;23.192;2023-06-19T12:00:00;92517.97;;;26.59;45.33
64602;BME280;68371;42.630;23.192;2023-06-19T12:02:31;92523.06;;;26.92;40.14
64602;BME280;68371;42.630;23.192;2023-06-19T12:04:57;92509.94;;;27.16;40.66
64602;BME280;68371;42.630;23.192;2023-06-19T12:07:24;92500.22;;;27.18;39.64
64602;BME280;68371;42.630;23.192;2023-06-19T12:09:53;92509.56;;;27.40;41.27
64602;BME280;68371;42.630;23.192;2023-06-19T12:12:20;92513.56;;;27.57;39.12
64602;BME280;68371;42.630;23.192;2023-06-19T12:14:46;92517.59;;;27.84;36.51
64602;BME280;68371;42.630;23.192;2023-06-19T12:17:13;92519.47;;;28.27;39.03
64602;BME280;68371;42.630;23.192;2023-06-19T12:19:40;92519.19;;;28.66;38.89
64602;BME280;68371;42.630;23.192;2023-06-19T12:22:06;92515.31;;;28.94;36.48
64602;BME280;68371;42.630;23.192;2023-06-19T12:24:33;92514.25;;;29.01;37.06
64602;BME280;68371;42.630;23.192;2023-06-19T12:27:01;92504.09;;;29.33;35.88
64602;BME280;68371;42.630;23.192;2023-06-19T12:29:28;92508.41;;;29.58;39.26
64602;BME280;68371;42.630;23.192;2023-06-19T12:32:00;92509.03;;;29.71;35.58
64602;BME280;68371;42.630;23.192;2023-06-19T12:34:27;92512.06;;;29.18;34.37
64602;BME280;68371;42.630;23.192;2023-06-19T12:36:54;92513.81;;;28.84;35.77
64602;BME280;68371;42.630;23.192;2023-06-19T12:39:22;92505.81;;;28.62;38.93
64602;BME280;68371;42.630;23.192;2023-06-19T12:41:50;92513.06;;;28.93;37.61
64602;BME280;68371;42.630;23.192;2023-06-19T12:44:18;92514.00;;;29.17;37.93
64602;BME280;68371;42.630;23.192;2023-06-19T12:46:45;92508.06;;;28.73;35.54
64602;BME280;68371;42.630;23.192;2023-06-19T12:49:11;92508.69;;;28.86;35.12
64602;BME280;68371;42.630;23.192;2023-06-19T12:51:38;92512.44;;;28.80;34.33